This is the latest recevied weather packets stored in our database for station/object TA5KA. If no packets are shown the sender has not sent any weather packets the latest 10 day(s).
| Time | Temp. | Humidity | Pressure | Rain* | Wind** | Luminosity | Snow |
|---|---|---|---|---|---|---|---|
| 1778149534 | 17.22° C | 42% | 1021 hPa | 0 mm | - | - | - |
| 1778149015 | 17.22° C | 42% | 1021 hPa | 0 mm | - | - | - |
| 1778148933 | 17.22° C | 42% | 1021 hPa | 0 mm | - | - | - |
| 1778148413 | 17.22° C | 42% | 1021 hPa | 0 mm | - | - | - |
| 1778148332 | 17.22° C | 42% | 1021 hPa | 0 mm | - | - | - |
| 1778147812 | 17.22° C | 42% | 1021 hPa | 0 mm | - | - | - |
| 1778147730 | 17.22° C | 42% | 1021 hPa | 0 mm | - | - | - |
| 1778147210 | 14.44° C | 48% | 1019 hPa | 0 mm | - | - | - |
| 1778147129 | 14.44° C | 48% | 1019 hPa | 0 mm | - | - | - |
| 1778146609 | 17.22° C | 42% | 1021 hPa | 0 mm | - | - | - |
| 1778146527 | 17.22° C | 42% | 1021 hPa | 0 mm | - | - | - |
| 1778146008 | 16.11° C | 39% | 1021 hPa | 0 mm | - | - | - |
| 1778145926 | 16.11° C | 39% | 1021 hPa | 0 mm | - | - | - |
| 1778145406 | 16.11° C | 39% | 1021 hPa | 0 mm | - | - | - |
| 1778145324 | 16.11° C | 39% | 1021 hPa | 0 mm | - | - | - |
| 1778144805 | 15.56° C | 48% | 1021 hPa | 0 mm | - | - | - |
| 1778144722 | 15.56° C | 48% | 1021 hPa | 0 mm | - | - | - |
| 1778144204 | 15° C | 48% | 1021 hPa | 0 mm | - | - | - |
| 1778144121 | 15° C | 48% | 1021 hPa | 0 mm | - | - | - |
| 1778143603 | 13.89° C | 51% | 1020 hPa | 0 mm | - | - | - |
| 1778143519 | 13.89° C | 51% | 1020 hPa | 0 mm | - | - | - |
| 1778143001 | 15.56° C | 48% | 1021 hPa | 0 mm | - | - | - |
| 1778142918 | 15.56° C | 48% | 1021 hPa | 0 mm | - | - | - |
| 1778142400 | 15° C | 55% | 1022 hPa | 0 mm | - | - | - |
| 1778142317 | 15° C | 55% | 1022 hPa | 0 mm | - | - | - |
* Rain latest hour (hover to see other rain measurements)
** Current wind speed in m/s (hover to see current wind gust speed)